sensor_id;sensor_type;location;lat;lon;timestamp;P1;durP1;ratioP1;P2;durP2;ratioP2
71162;SDS011;58858;50.948;6.566;2022-08-03T00:02:47;9.25;;;2.42;;
71162;SDS011;58858;50.948;6.566;2022-08-03T00:12:48;5.55;;;2.35;;
71162;SDS011;58858;50.948;6.566;2022-08-03T00:22:50;4.95;;;2.38;;
71162;SDS011;58858;50.948;6.566;2022-08-03T00:32:51;6.72;;;3.30;;
71162;SDS011;58858;50.948;6.566;2022-08-03T00:42:56;4.60;;;2.67;;
71162;SDS011;58858;50.948;6.566;2022-08-03T00:52:59;19.45;;;2.88;;
71162;SDS011;58858;50.948;6.566;2022-08-03T01:03:01;3.50;;;2.50;;
71162;SDS011;58858;50.948;6.566;2022-08-03T01:33:54;4.00;;;2.70;;
71162;SDS011;58858;50.948;6.566;2022-08-03T01:44:00;4.30;;;2.60;;
71162;SDS011;58858;50.948;6.566;2022-08-03T01:54:04;9.33;;;2.70;;
71162;SDS011;58858;50.948;6.566;2022-08-03T02:04:07;6.25;;;2.85;;
71162;SDS011;58858;50.948;6.566;2022-08-03T02:14:10;5.05;;;2.95;;
71162;SDS011;58858;50.948;6.566;2022-08-03T02:24:13;4.57;;;2.78;;
71162;SDS011;58858;50.948;6.566;2022-08-03T02:34:15;3.10;;;2.33;;
71162;SDS011;58858;50.948;6.566;2022-08-03T02:44:20;6.63;;;3.13;;
71162;SDS011;58858;50.948;6.566;2022-08-03T02:54:25;6.15;;;2.83;;
71162;SDS011;58858;50.948;6.566;2022-08-03T03:04:28;3.38;;;2.25;;
71162;SDS011;58858;50.948;6.566;2022-08-03T03:14:30;4.90;;;2.72;;
71162;SDS011;58858;50.948;6.566;2022-08-03T03:24:33;4.85;;;3.33;;
71162;SDS011;58858;50.948;6.566;2022-08-03T03:34:36;8.27;;;3.03;;
71162;SDS011;58858;50.948;6.566;2022-08-03T03:44:37;4.20;;;2.95;;
71162;SDS011;58858;50.948;6.566;2022-08-03T03:54:42;3.58;;;2.83;;
71162;SDS011;58858;50.948;6.566;2022-08-03T04:15:03;7.25;;;3.50;;
71162;SDS011;58858;50.948;6.566;2022-08-03T04:25:06;4.15;;;2.72;;
71162;SDS011;58858;50.948;6.566;2022-08-03T04:35:10;5.65;;;3.00;;
71162;SDS011;58858;50.948;6.566;2022-08-03T04:45:11;4.78;;;2.90;;
71162;SDS011;58858;50.948;6.566;2022-08-03T04:55:35;5.85;;;3.85;;
71162;SDS011;58858;50.948;6.566;2022-08-03T05:05:36;4.28;;;2.85;;
71162;SDS011;58858;50.948;6.566;2022-08-03T05:15:37;5.90;;;3.20;;
71162;SDS011;58858;50.948;6.566;2022-08-03T05:25:38;8.30;;;3.30;;
71162;SDS011;58858;50.948;6.566;2022-08-03T05:35:39;7.95;;;3.17;;
71162;SDS011;58858;50.948;6.566;2022-08-03T05:45:40;10.90;;;3.53;;
71162;SDS011;58858;50.948;6.566;2022-08-03T05:55:41;9.15;;;3.67;;
71162;SDS011;58858;50.948;6.566;2022-08-03T06:05:42;9.70;;;3.78;;
71162;SDS011;58858;50.948;6.566;2022-08-03T06:15:43;9.18;;;4.00;;
71162;SDS011;58858;50.948;6.566;2022-08-03T06:25:47;9.27;;;3.90;;
71162;SDS011;58858;50.948;6.566;2022-08-03T06:35:49;12.30;;;4.40;;
71162;SDS011;58858;50.948;6.566;2022-08-03T06:45:50;8.60;;;3.40;;
71162;SDS011;58858;50.948;6.566;2022-08-03T06:55:51;13.60;;;3.47;;
71162;SDS011;58858;50.948;6.566;2022-08-03T07:05:52;21.48;;;3.65;;
71162;SDS011;58858;50.948;6.566;2022-08-03T07:15:53;13.07;;;3.03;;
71162;SDS011;58858;50.948;6.566;2022-08-03T07:25:54;14.55;;;3.22;;
71162;SDS011;58858;50.948;6.566;2022-08-03T07:35:55;10.45;;;3.22;;
71162;SDS011;58858;50.948;6.566;2022-08-03T07:45:56;14.77;;;3.65;;
71162;SDS011;58858;50.948;6.566;2022-08-03T07:55:57;19.52;;;3.08;;
71162;SDS011;58858;50.948;6.566;2022-08-03T08:05:58;11.57;;;3.30;;
71162;SDS011;58858;50.948;6.566;2022-08-03T08:15:59;13.48;;;2.38;;
71162;SDS011;58858;50.948;6.566;2022-08-03T08:26:00;5.68;;;2.35;;
71162;SDS011;58858;50.948;6.566;2022-08-03T08:36:01;5.35;;;2.88;;
71162;SDS011;58858;50.948;6.566;2022-08-03T08:46:03;12.70;;;2.50;;
71162;SDS011;58858;50.948;6.566;2022-08-03T08:56:09;12.57;;;2.60;;
71162;SDS011;58858;50.948;6.566;2022-08-03T09:06:15;7.90;;;2.47;;
71162;SDS011;58858;50.948;6.566;2022-08-03T09:16:17;6.78;;;2.50;;
71162;SDS011;58858;50.948;6.566;2022-08-03T09:26:22;9.60;;;3.15;;
71162;SDS011;58858;50.948;6.566;2022-08-03T09:36:43;8.93;;;2.65;;
71162;SDS011;58858;50.948;6.566;2022-08-03T09:46:48;9.13;;;1.98;;
71162;SDS011;58858;50.948;6.566;2022-08-03T09:56:57;4.18;;;1.50;;
71162;SDS011;58858;50.948;6.566;2022-08-03T10:17:10;2.30;;;1.30;;
71162;SDS011;58858;50.948;6.566;2022-08-03T10:27:11;3.83;;;1.45;;
71162;SDS011;58858;50.948;6.566;2022-08-03T10:37:19;5.00;;;1.30;;
71162;SDS011;58858;50.948;6.566;2022-08-03T10:47:22;2.42;;;1.25;;
71162;SDS011;58858;50.948;6.566;2022-08-03T11:07:45;10.10;;;2.08;;
71162;SDS011;58858;50.948;6.566;2022-08-03T11:17:58;6.03;;;1.60;;
71162;SDS011;58858;50.948;6.566;2022-08-03T11:38:27;4.72;;;1.52;;
71162;SDS011;58858;50.948;6.566;2022-08-03T11:48:39;5.03;;;1.42;;
71162;SDS011;58858;50.948;6.566;2022-08-03T11:58:46;5.15;;;1.40;;
71162;SDS011;58858;50.948;6.566;2022-08-03T12:08:48;7.90;;;1.83;;
71162;SDS011;58858;50.948;6.566;2022-08-03T12:19:03;6.75;;;1.90;;
71162;SDS011;58858;50.948;6.566;2022-08-03T12:29:06;5.63;;;2.15;;
71162;SDS011;58858;50.948;6.566;2022-08-03T12:39:07;3.85;;;1.63;;
71162;SDS011;58858;50.948;6.566;2022-08-03T12:49:12;3.25;;;1.35;;
71162;SDS011;58858;50.948;6.566;2022-08-03T12:59:22;5.13;;;1.33;;
71162;SDS011;58858;50.948;6.566;2022-08-03T13:09:27;9.57;;;1.40;;
71162;SDS011;58858;50.948;6.566;2022-08-03T13:19:32;2.47;;;1.35;;
71162;SDS011;58858;50.948;6.566;2022-08-03T13:29:33;5.95;;;1.98;;
71162;SDS011;58858;50.948;6.566;2022-08-03T13:39:34;10.57;;;2.80;;
71162;SDS011;58858;50.948;6.566;2022-08-03T13:49:36;3.87;;;1.67;;
71162;SDS011;58858;50.948;6.566;2022-08-03T13:59:37;5.07;;;1.40;;
71162;SDS011;58858;50.948;6.566;2022-08-03T14:09:38;4.50;;;1.50;;
71162;SDS011;58858;50.948;6.566;2022-08-03T14:19:39;4.07;;;1.65;;
71162;SDS011;58858;50.948;6.566;2022-08-03T14:29:40;5.78;;;1.73;;
71162;SDS011;58858;50.948;6.566;2022-08-03T14:39:41;7.20;;;1.27;;
71162;SDS011;58858;50.948;6.566;2022-08-03T14:49:43;7.80;;;1.10;;
71162;SDS011;58858;50.948;6.566;2022-08-03T14:59:44;4.47;;;1.25;;
71162;SDS011;58858;50.948;6.566;2022-08-03T15:09:45;3.03;;;1.15;;
71162;SDS011;58858;50.948;6.566;2022-08-03T15:19:46;5.38;;;1.63;;
71162;SDS011;58858;50.948;6.566;2022-08-03T15:29:47;1.77;;;1.02;;
71162;SDS011;58858;50.948;6.566;2022-08-03T15:39:48;3.83;;;1.55;;
71162;SDS011;58858;50.948;6.566;2022-08-03T15:49:49;12.10;;;6.38;;
71162;SDS011;58858;50.948;6.566;2022-08-03T15:59:50;6.70;;;1.65;;
71162;SDS011;58858;50.948;6.566;2022-08-03T16:09:51;4.15;;;1.50;;
71162;SDS011;58858;50.948;6.566;2022-08-03T16:19:52;9.90;;;1.38;;
71162;SDS011;58858;50.948;6.566;2022-08-03T16:29:54;7.03;;;0.85;;
71162;SDS011;58858;50.948;6.566;2022-08-03T16:39:55;2.75;;;0.90;;
71162;SDS011;58858;50.948;6.566;2022-08-03T16:49:56;5.47;;;1.00;;
71162;SDS011;58858;50.948;6.566;2022-08-03T16:59:57;4.80;;;1.20;;
71162;SDS011;58858;50.948;6.566;2022-08-03T17:09:59;3.08;;;0.95;;
71162;SDS011;58858;50.948;6.566;2022-08-03T17:20:00;2.40;;;1.13;;
71162;SDS011;58858;50.948;6.566;2022-08-03T17:30:07;2.83;;;0.88;;
71162;SDS011;58858;50.948;6.566;2022-08-03T17:40:10;3.67;;;1.10;;
71162;SDS011;58858;50.948;6.566;2022-08-03T17:50:13;5.70;;;1.13;;
71162;SDS011;58858;50.948;6.566;2022-08-03T18:00:15;6.97;;;1.48;;
71162;SDS011;58858;50.948;6.566;2022-08-03T18:10:35;4.07;;;0.85;;
71162;SDS011;58858;50.948;6.566;2022-08-03T18:20:38;2.03;;;1.20;;
71162;SDS011;58858;50.948;6.566;2022-08-03T18:30:46;2.92;;;1.45;;
71162;SDS011;58858;50.948;6.566;2022-08-03T18:40:47;5.10;;;1.40;;
71162;SDS011;58858;50.948;6.566;2022-08-03T18:50:50;1.83;;;1.10;;
71162;SDS011;58858;50.948;6.566;2022-08-03T19:11:44;8.07;;;1.75;;
71162;SDS011;58858;50.948;6.566;2022-08-03T19:21:53;4.10;;;1.57;;
71162;SDS011;58858;50.948;6.566;2022-08-03T19:31:55;2.67;;;1.10;;
71162;SDS011;58858;50.948;6.566;2022-08-03T19:41:59;2.70;;;1.10;;
71162;SDS011;58858;50.948;6.566;2022-08-03T19:52:05;12.05;;;3.72;;
71162;SDS011;58858;50.948;6.566;2022-08-03T20:02:09;7.05;;;1.35;;
71162;SDS011;58858;50.948;6.566;2022-08-03T20:12:11;4.43;;;1.10;;
71162;SDS011;58858;50.948;6.566;2022-08-03T20:22:12;3.90;;;1.35;;
71162;SDS011;58858;50.948;6.566;2022-08-03T20:32:15;8.20;;;1.73;;
71162;SDS011;58858;50.948;6.566;2022-08-03T20:42:17;6.73;;;1.13;;
71162;SDS011;58858;50.948;6.566;2022-08-03T20:52:19;3.72;;;1.20;;
71162;SDS011;58858;50.948;6.566;2022-08-03T21:02:20;6.18;;;1.55;;
71162;SDS011;58858;50.948;6.566;2022-08-03T21:12:25;7.47;;;1.67;;
71162;SDS011;58858;50.948;6.566;2022-08-03T21:22:34;3.15;;;1.10;;
71162;SDS011;58858;50.948;6.566;2022-08-03T21:32:37;3.07;;;1.33;;
71162;SDS011;58858;50.948;6.566;2022-08-03T21:42:40;1.85;;;1.13;;
71162;SDS011;58858;50.948;6.566;2022-08-03T21:52:44;2.80;;;1.00;;
71162;SDS011;58858;50.948;6.566;2022-08-03T22:02:49;4.97;;;1.70;;
71162;SDS011;58858;50.948;6.566;2022-08-03T22:23:12;5.68;;;1.55;;
71162;SDS011;58858;50.948;6.566;2022-08-03T22:33:33;3.60;;;1.40;;
71162;SDS011;58858;50.948;6.566;2022-08-03T22:43:56;7.63;;;1.65;;
71162;SDS011;58858;50.948;6.566;2022-08-03T22:53:58;3.92;;;1.60;;
71162;SDS011;58858;50.948;6.566;2022-08-03T23:03:59;4.53;;;2.05;;
71162;SDS011;58858;50.948;6.566;2022-08-03T23:14:05;4.63;;;1.77;;
71162;SDS011;58858;50.948;6.566;2022-08-03T23:24:11;6.15;;;1.92;;
71162;SDS011;58858;50.948;6.566;2022-08-03T23:34:13;2.80;;;1.25;;
71162;SDS011;58858;50.948;6.566;2022-08-03T23:44:34;6.45;;;1.80;;
71162;SDS011;58858;50.948;6.566;2022-08-03T23:54:51;12.80;;;2.15;;
